createdAt,value
2022-08-22T00:01:38.066Z,23.34
2022-08-22T00:06:52.704Z,22.98
2022-08-22T00:17:49.347Z,22.29
2022-08-22T00:22:52.550Z,23.28
2022-08-22T00:27:54.909Z,22.75
2022-08-22T00:32:53.756Z,22.51
2022-08-22T00:37:54.772Z,22.70
2022-08-22T00:43:21.253Z,22.79
2022-08-22T00:48:36.647Z,23.21
2022-08-22T00:53:51.334Z,22.49
2022-08-22T00:59:22.989Z,22.45
2022-08-22T01:04:49.856Z,23.09
2022-08-22T01:10:01.452Z,21.89
2022-08-22T01:14:59.473Z,22.63
2022-08-22T01:20:40.468Z,23.09
2022-08-22T01:25:57.344Z,23.06
2022-08-22T01:31:35.011Z,23.00
2022-08-22T01:36:55.758Z,22.10
2022-08-22T01:42:32.930Z,22.66
2022-08-22T01:47:36.634Z,22.99
2022-08-22T01:52:38.766Z,23.00
2022-08-22T01:57:32.181Z,22.67
2022-08-22T02:02:44.742Z,22.45
2022-08-22T02:07:50.117Z,22.51
2022-08-22T02:12:49.169Z,23.00
2022-08-22T02:18:01.100Z,23.10
2022-08-22T02:23:01.869Z,22.99
2022-08-22T02:28:02.569Z,22.95
2022-08-22T02:33:04.395Z,22.87
2022-08-22T02:38:13.394Z,22.94
2022-08-22T02:43:18.255Z,22.56
2022-08-22T02:48:21.335Z,22.65
2022-08-22T02:53:24.712Z,22.98
2022-08-22T02:58:36.993Z,22.78
2022-08-22T03:03:37.375Z,22.49
2022-08-22T03:08:38.431Z,22.61
2022-08-22T03:13:45.936Z,22.81
2022-08-22T03:18:50.008Z,22.96
2022-08-22T03:23:53.760Z,22.90
2022-08-22T03:29:03.082Z,22.95
2022-08-22T03:34:26.727Z,22.96
2022-08-22T03:39:49.296Z,22.18
2022-08-22T03:45:09.412Z,22.70
2022-08-22T03:50:34.483Z,22.33
2022-08-22T03:55:47.767Z,22.75
2022-08-22T04:01:16.117Z,22.43
2022-08-22T04:06:37.976Z,22.71
2022-08-22T04:12:13.848Z,22.33
2022-08-22T04:17:32.361Z,22.31
2022-08-22T04:22:50.984Z,22.98
2022-08-22T04:27:56.039Z,22.64
2022-08-22T04:32:58.004Z,22.91
2022-08-22T04:37:58.833Z,22.36
2022-08-22T04:42:58.330Z,22.92
2022-08-22T04:47:59.457Z,22.51
2022-08-22T04:53:11.401Z,22.65
2022-08-22T04:58:19.070Z,23.14
2022-08-22T05:03:18.020Z,23.17
2022-08-22T05:08:15.195Z,22.98
2022-08-22T05:13:14.407Z,22.09
2022-08-22T05:18:10.795Z,22.16
2022-08-22T05:23:17.528Z,22.35
2022-08-22T05:28:16.928Z,22.76
2022-08-22T05:33:24.182Z,23.43
2022-08-22T05:38:23.634Z,22.47
2022-08-22T05:43:21.251Z,23.09
2022-08-22T05:48:26.049Z,23.68
2022-08-22T05:53:33.132Z,23.82
2022-08-22T05:58:49.745Z,23.48
2022-08-22T06:03:59.962Z,22.68
2022-08-22T06:09:06.055Z,23.97
2022-08-22T06:14:13.004Z,22.93
2022-08-22T06:19:19.500Z,23.94
2022-08-22T06:24:29.766Z,22.63
2022-08-22T06:29:33.897Z,22.95
2022-08-22T06:34:35.974Z,23.12
2022-08-22T06:39:37.307Z,23.19
2022-08-22T06:44:51.969Z,23.48
2022-08-22T06:50:01.779Z,23.46
2022-08-22T06:55:33.471Z,23.66
2022-08-22T07:00:52.413Z,23.82
2022-08-22T07:05:59.280Z,23.89
2022-08-22T07:11:00.037Z,24.44
2022-08-22T07:16:02.475Z,25.10
2022-08-22T07:21:00.446Z,24.99
2022-08-22T07:26:02.934Z,24.66
2022-08-22T07:30:59.277Z,24.59
2022-08-22T07:36:16.334Z,24.99
2022-08-22T07:41:20.294Z,24.34
2022-08-22T07:46:34.464Z,25.32
2022-08-22T07:51:35.909Z,24.68
2022-08-22T07:56:36.571Z,25.56
2022-08-22T08:01:31.371Z,25.88
2022-08-22T08:07:41.570Z,26.21
2022-08-22T08:13:06.674Z,26.02
2022-08-22T08:20:27.418Z,26.05
2022-08-22T08:24:40.537Z,26.68
2022-08-22T08:29:39.185Z,25.76
2022-08-22T08:40:37.751Z,27.68
2022-08-22T08:46:02.848Z,28.12
2022-08-22T08:51:18.404Z,29.63
2022-08-22T08:56:33.116Z,30.16
2022-08-22T09:01:54.023Z,29.79
2022-08-22T09:07:19.921Z,29.35
2022-08-22T09:12:32.512Z,29.45
2022-08-22T09:18:07.561Z,30.16
2022-08-22T09:23:53.436Z,30.64
2022-08-22T09:29:02.461Z,31.00
2022-08-22T09:34:08.325Z,30.25
2022-08-22T09:39:16.072Z,30.22
2022-08-22T09:44:25.474Z,29.54
2022-08-22T10:02:45.030Z,29.73
2022-08-22T10:08:19.732Z,30.61
2022-08-22T10:26:22.822Z,30.78
2022-08-22T10:31:46.053Z,31.65
2022-08-22T10:42:41.690Z,31.06
2022-08-22T10:48:57.589Z,31.05
2022-08-22T10:54:43.496Z,31.19
2022-08-22T11:06:22.812Z,32.27
2022-08-22T11:11:48.258Z,33.17
2022-08-22T11:17:40.631Z,32.83
2022-08-22T11:23:34.984Z,32.75
2022-08-22T11:29:33.161Z,34.35
2022-08-22T11:34:49.069Z,34.38
2022-08-22T11:40:11.876Z,35.66
2022-08-22T11:45:22.281Z,37.12
2022-08-22T11:50:29.689Z,37.74
2022-08-22T11:55:44.188Z,38.51
2022-08-22T12:01:52.960Z,38.38
2022-08-22T12:07:13.545Z,37.62
2022-08-22T12:13:12.064Z,38.00
2022-08-22T12:19:00.087Z,38.38
2022-08-22T12:24:20.979Z,38.58
2022-08-22T12:29:45.107Z,38.76
2022-08-22T12:35:14.096Z,39.94
2022-08-22T12:40:45.862Z,39.33
2022-08-22T12:47:11.786Z,39.61
2022-08-22T12:52:33.236Z,39.47
2022-08-22T12:57:54.009Z,40.41
2022-08-22T13:08:43.824Z,39.92
2022-08-22T13:13:59.603Z,39.84
2022-08-22T13:19:07.579Z,39.77
2022-08-22T13:24:16.987Z,39.82
2022-08-22T13:29:42.710Z,40.16
2022-08-22T13:34:53.355Z,39.73
2022-08-22T13:40:03.914Z,40.53
2022-08-22T13:45:07.319Z,40.65
2022-08-22T13:50:12.194Z,40.91
2022-08-22T13:55:34.161Z,40.07
2022-08-22T14:01:21.759Z,40.81
2022-08-22T14:06:53.739Z,40.55
2022-08-22T14:18:47.616Z,37.82
2022-08-22T14:23:50.788Z,37.84
2022-08-22T14:29:02.510Z,37.43
2022-08-22T14:34:03.615Z,36.57
2022-08-22T14:39:02.859Z,35.69
2022-08-22T14:44:09.986Z,35.28
2022-08-22T14:49:24.933Z,34.40
2022-08-22T14:54:28.968Z,33.72
2022-08-22T15:00:00.303Z,33.75
2022-08-22T15:05:01.625Z,32.78
2022-08-22T15:10:03.540Z,31.84
2022-08-22T15:15:03.707Z,31.67
2022-08-22T15:20:12.209Z,32.07
2022-08-22T15:25:13.185Z,30.75
2022-08-22T15:30:20.431Z,31.51
2022-08-22T15:36:15.911Z,30.24
2022-08-22T15:41:49.044Z,31.43
2022-08-22T15:47:24.144Z,30.27
2022-08-22T15:52:28.693Z,30.74
2022-08-22T15:57:29.665Z,29.94
2022-08-22T16:02:35.038Z,29.71
2022-08-22T16:07:51.558Z,29.46
2022-08-22T16:13:50.267Z,30.57
2022-08-22T16:19:37.199Z,29.29
2022-08-22T16:25:51.849Z,28.95
2022-08-22T16:44:23.759Z,29.14
2022-08-22T16:50:17.029Z,28.81
2022-08-22T16:56:11.544Z,29.96
2022-08-22T17:13:42.399Z,28.36
2022-08-22T17:19:30.378Z,28.34
2022-08-22T17:39:01.279Z,28.47
2022-08-22T17:46:01.630Z,28.14
2022-08-22T17:51:13.611Z,29.30
2022-08-22T18:23:50.711Z,28.19
2022-08-22T18:35:54.654Z,27.08
2022-08-22T18:41:27.624Z,26.91
2022-08-22T18:52:40.937Z,26.91
2022-08-22T18:58:34.516Z,27.42
2022-08-22T19:10:56.659Z,25.79
2022-08-22T19:16:42.011Z,26.85
2022-08-22T19:22:16.258Z,25.92
2022-08-22T19:27:33.248Z,26.22
2022-08-22T19:33:08.136Z,26.78
2022-08-22T19:38:05.407Z,26.04
2022-08-22T19:43:02.409Z,25.89
2022-08-22T19:48:13.617Z,26.44
2022-08-22T19:53:38.995Z,26.33
2022-08-22T19:58:52.507Z,26.19
2022-08-22T20:04:03.132Z,25.05
2022-08-22T20:09:21.898Z,24.93
2022-08-22T20:14:30.061Z,24.94
2022-08-22T20:19:38.237Z,25.42
2022-08-22T20:24:40.431Z,25.25
2022-08-22T20:29:40.890Z,25.70
2022-08-22T20:34:43.368Z,25.05
2022-08-22T20:39:49.953Z,24.87
2022-08-22T20:44:56.489Z,25.50
2022-08-22T20:49:57.447Z,25.09
2022-08-22T20:55:01.891Z,25.40
2022-08-22T20:59:59.834Z,24.43
2022-08-22T21:05:02.686Z,24.69
2022-08-22T21:10:25.426Z,24.53
2022-08-22T21:15:32.888Z,24.33
2022-08-22T21:20:26.378Z,24.80
2022-08-22T21:25:19.799Z,24.55
2022-08-22T21:30:26.293Z,25.25
2022-08-22T21:35:26.654Z,25.20
2022-08-22T21:40:23.202Z,24.83
2022-08-22T21:45:32.911Z,24.04
2022-08-22T21:50:34.766Z,24.70
2022-08-22T21:55:30.194Z,24.08
2022-08-22T22:00:49.984Z,24.52
2022-08-22T22:05:46.118Z,25.13
2022-08-22T22:10:43.406Z,24.77
2022-08-22T22:15:42.519Z,25.12
2022-08-22T22:20:37.515Z,25.09
2022-08-22T22:25:39.652Z,24.50
2022-08-22T22:30:37.354Z,25.05
2022-08-22T22:35:31.534Z,24.83
2022-08-22T22:40:28.617Z,24.92
2022-08-22T22:45:22.917Z,24.31
2022-08-22T22:50:19.407Z,24.60
2022-08-22T22:55:12.952Z,23.74
2022-08-22T23:00:20.059Z,24.31
2022-08-22T23:05:16.072Z,24.45
2022-08-22T23:10:17.669Z,24.39
2022-08-22T23:15:14.722Z,23.92
2022-08-22T23:20:10.205Z,24.13
2022-08-22T23:25:03.637Z,24.24
2022-08-22T23:30:05.932Z,23.79
2022-08-22T23:34:59.609Z,24.14
2022-08-22T23:39:56.600Z,23.53
2022-08-22T23:44:50.161Z,24.01
2022-08-22T23:49:44.336Z,24.05
2022-08-22T23:54:40.642Z,23.94
2022-08-22T23:59:38.396Z,23.94
